createdAt,value
2023-03-26T00:00:21.749Z,100478.97
2023-03-26T00:02:52.176Z,100470.88
2023-03-26T00:05:22.856Z,100481.25
2023-03-26T00:07:55.313Z,100482.13
2023-03-26T00:10:25.621Z,100480.31
2023-03-26T00:12:55.465Z,100478.47
2023-03-26T00:15:26.803Z,100476.69
2023-03-26T00:17:57.045Z,100480.97
2023-03-26T00:20:27.725Z,100494.09
2023-03-26T00:23:01.687Z,100480.91
2023-03-26T00:25:32.227Z,100489.56
2023-03-26T00:28:02.014Z,100485.09
2023-03-26T00:30:31.877Z,100490.25
2023-03-26T00:33:01.685Z,100498.88
2023-03-26T00:35:31.833Z,100497.91
2023-03-26T00:38:05.787Z,100505.63
2023-03-26T00:40:37.164Z,100511.59
2023-03-26T00:43:19.083Z,100506.22
2023-03-26T00:45:49.818Z,100510.53
2023-03-26T00:48:21.684Z,100508.75
2023-03-26T00:50:56.438Z,100504.38
2023-03-26T00:53:29.012Z,100506.97
2023-03-26T00:56:00.642Z,100504.38
2023-03-26T00:58:31.940Z,100506.13
2023-03-26T01:01:04.596Z,100505.25
2023-03-26T01:03:38.458Z,100513.16
2023-03-26T01:06:11.492Z,100508.03
2023-03-26T01:08:46.894Z,100515.94
2023-03-26T01:11:19.300Z,100506.22
2023-03-26T01:13:52.540Z,100500.88
2023-03-26T01:16:29.102Z,100499.09
2023-03-26T01:19:00.681Z,100504.25
2023-03-26T01:21:34.689Z,100501.59
2023-03-26T01:24:09.103Z,100499.78
2023-03-26T01:27:01.736Z,100509.44
2023-03-26T01:29:36.908Z,100508.53
2023-03-26T01:32:16.365Z,100501.44
2023-03-26T01:35:01.303Z,100501.41
2023-03-26T01:37:39.394Z,100503.19
2023-03-26T01:40:22.026Z,100506.69
2023-03-26T01:42:59.452Z,100507.53
2023-03-26T01:45:33.350Z,100507.53
2023-03-26T01:48:03.592Z,100498.78
2023-03-26T01:50:33.425Z,100499.75
2023-03-26T01:53:06.076Z,100494.53
2023-03-26T01:55:49.758Z,100492.81
2023-03-26T01:58:30.455Z,100498.00
2023-03-26T02:01:12.854Z,100497.16
2023-03-26T02:03:50.202Z,100492.03
2023-03-26T02:06:25.993Z,100480.75
2023-03-26T02:08:59.081Z,100474.69
2023-03-26T02:11:35.500Z,100470.28
2023-03-26T02:14:07.554Z,100476.41
2023-03-26T02:16:37.532Z,100467.56
2023-03-26T02:19:16.185Z,100467.53
2023-03-26T02:21:47.035Z,100460.47
2023-03-26T02:24:16.932Z,100467.53
2023-03-26T02:26:49.376Z,100455.25
2023-03-26T02:29:20.720Z,100463.06
2023-03-26T02:31:51.197Z,100460.38
2023-03-26T02:34:21.165Z,100459.44
2023-03-26T02:36:51.179Z,100454.16
2023-03-26T02:39:21.103Z,100453.22
2023-03-26T02:41:54.663Z,100454.16
2023-03-26T02:44:24.473Z,100448.91
2023-03-26T02:46:55.048Z,100448.94
2023-03-26T02:49:24.869Z,100448.13
2023-03-26T02:51:56.462Z,100449.00
2023-03-26T02:54:26.400Z,100439.41
2023-03-26T02:57:01.068Z,100442.09
2023-03-26T02:59:31.003Z,100444.66
2023-03-26T03:02:00.801Z,100449.03
2023-03-26T03:04:30.597Z,100445.53
2023-03-26T03:07:01.158Z,100439.41
2023-03-26T03:09:30.939Z,100435.06
2023-03-26T03:12:03.315Z,100434.19
2023-03-26T03:14:33.086Z,100430.72
2023-03-26T03:17:02.940Z,100439.53
2023-03-26T03:19:32.750Z,100434.28
2023-03-26T03:22:04.193Z,100435.16
2023-03-26T03:24:34.203Z,100427.19
2023-03-26T03:27:06.794Z,100436.72
2023-03-26T03:29:36.579Z,100435.81
2023-03-26T03:32:06.478Z,100436.59
2023-03-26T03:34:38.887Z,100438.97
2023-03-26T03:37:08.708Z,100442.38
2023-03-26T03:39:38.512Z,100438.75
2023-03-26T03:42:11.794Z,100437.03
2023-03-26T03:44:41.623Z,100436.16
2023-03-26T03:47:13.902Z,100432.66
2023-03-26T03:49:43.707Z,100438.75
2023-03-26T03:52:13.525Z,100441.41
2023-03-26T03:54:43.347Z,100440.44
2023-03-26T03:57:16.313Z,100442.09
2023-03-26T03:59:48.434Z,100437.72
2023-03-26T04:02:31.751Z,100431.50
2023-03-26T04:05:01.588Z,100427.06
2023-03-26T04:07:33.575Z,100438.47
2023-03-26T04:10:04.721Z,100435.78
2023-03-26T04:12:39.542Z,100441.03
2023-03-26T04:15:10.393Z,100439.25
2023-03-26T04:17:45.510Z,100442.66
2023-03-26T04:20:16.335Z,100444.25
2023-03-26T04:22:47.717Z,100430.94
2023-03-26T04:25:17.925Z,100441.22
2023-03-26T04:27:51.312Z,100438.50
2023-03-26T04:30:23.471Z,100436.66
2023-03-26T04:32:53.316Z,100438.34
2023-03-26T04:35:23.937Z,100440.09
2023-03-26T04:37:54.688Z,100440.09
2023-03-26T04:40:25.277Z,100442.69
2023-03-26T04:43:04.034Z,100443.53
2023-03-26T04:45:33.806Z,100437.34
2023-03-26T04:48:03.726Z,100435.59
2023-03-26T04:50:33.561Z,100433.84
2023-03-26T04:53:03.424Z,100437.25
2023-03-26T04:55:38.821Z,100425.75
2023-03-26T04:58:14.192Z,100426.66
2023-03-26T05:00:44.354Z,100429.28
2023-03-26T05:03:16.580Z,100424.03
2023-03-26T05:05:46.813Z,100425.69
2023-03-26T05:08:16.577Z,100428.22
2023-03-26T05:10:46.348Z,100421.06
2023-03-26T05:13:18.729Z,100427.06
2023-03-26T05:15:48.500Z,100429.69
2023-03-26T05:18:18.660Z,100432.38
2023-03-26T05:20:48.509Z,100431.59
2023-03-26T05:23:18.332Z,100435.00
2023-03-26T05:25:48.128Z,100427.06
2023-03-26T05:28:24.531Z,100432.31
2023-03-26T05:30:56.187Z,100423.44
2023-03-26T05:33:26.459Z,100436.56
2023-03-26T05:36:02.519Z,100421.72
2023-03-26T05:38:33.071Z,100435.44
2023-03-26T05:41:08.570Z,100429.28
2023-03-26T05:43:41.094Z,100419.81
2023-03-26T05:46:11.056Z,100421.66
2023-03-26T05:48:41.050Z,100418.03
2023-03-26T05:51:12.509Z,100418.03
2023-03-26T05:53:42.396Z,100429.47
2023-03-26T05:56:13.035Z,100421.84
2023-03-26T05:58:45.505Z,100424.56
2023-03-26T06:01:19.846Z,100420.28
2023-03-26T06:03:53.207Z,100419.59
2023-03-26T06:06:24.270Z,100419.63
2023-03-26T06:09:00.928Z,100414.50
2023-03-26T06:11:32.815Z,100410.19
2023-03-26T06:14:06.081Z,100410.22
2023-03-26T06:16:36.128Z,100409.50
2023-03-26T06:19:06.022Z,100406.06
2023-03-26T06:21:35.834Z,100403.31
2023-03-26T06:24:05.630Z,100401.59
2023-03-26T06:26:36.008Z,100411.25
2023-03-26T06:29:08.825Z,100406.16
2023-03-26T06:31:38.670Z,100409.88
2023-03-26T06:34:08.604Z,100405.69
2023-03-26T06:36:38.430Z,100406.59
2023-03-26T06:39:08.283Z,100409.31
2023-03-26T06:41:38.869Z,100413.84
2023-03-26T06:46:56.519Z,100417.84
2023-03-26T06:49:26.349Z,100417.91
2023-03-26T06:51:56.345Z,100417.84
2023-03-26T06:54:27.753Z,100411.66
2023-03-26T06:56:59.280Z,100412.56
2023-03-26T06:59:29.209Z,100418.56
2023-03-26T07:02:01.593Z,100415.13
2023-03-26T07:04:31.519Z,100417.81
2023-03-26T07:07:01.441Z,100417.66
2023-03-26T07:09:32.146Z,100415.00
2023-03-26T07:12:02.230Z,100418.31
2023-03-26T07:14:32.931Z,100407.53
2023-03-26T07:17:06.234Z,100412.00
2023-03-26T07:19:37.694Z,100417.34
2023-03-26T07:22:08.796Z,100417.44
2023-03-26T07:24:39.650Z,100413.47
2023-03-26T07:27:39.401Z,100414.16
2023-03-26T07:30:15.764Z,100414.69
2023-03-26T07:32:56.473Z,100419.28
2023-03-26T07:35:33.523Z,100422.16
2023-03-26T07:38:16.641Z,100422.28
2023-03-26T07:41:00.463Z,100419.81
2023-03-26T07:43:48.741Z,100419.16
2023-03-26T07:46:20.301Z,100411.25
2023-03-26T07:48:55.297Z,100417.22
2023-03-26T07:51:25.765Z,100413.69
2023-03-26T07:53:56.543Z,100404.25
2023-03-26T07:56:34.269Z,100403.41
2023-03-26T07:59:17.083Z,100403.91
2023-03-26T08:02:01.587Z,100407.94
2023-03-26T08:04:49.463Z,100411.78
2023-03-26T08:07:30.154Z,100403.59
2023-03-26T08:10:11.279Z,100412.22
2023-03-26T08:12:51.559Z,100411.09
2023-03-26T08:15:29.522Z,100409.03
2023-03-26T08:18:08.001Z,100408.13
2023-03-26T08:20:48.531Z,100410.59
2023-03-26T08:23:27.911Z,100415.78
2023-03-26T08:26:04.632Z,100410.59
2023-03-26T08:28:56.601Z,100414.16
2023-03-26T08:31:36.017Z,100415.88
2023-03-26T08:34:06.451Z,100416.78
2023-03-26T08:36:39.113Z,100415.22
2023-03-26T08:39:10.025Z,100418.78
2023-03-26T08:41:59.482Z,100427.66
2023-03-26T08:44:59.102Z,100424.91
2023-03-26T08:48:18.041Z,100425.06
2023-03-26T08:51:07.953Z,100422.44
2023-03-26T08:54:13.943Z,100423.59
2023-03-26T08:56:54.837Z,100423.91
2023-03-26T08:59:53.647Z,100423.44
2023-03-26T09:02:53.162Z,100437.63
2023-03-26T09:05:58.292Z,100431.53
2023-03-26T09:09:07.597Z,100433.38
2023-03-26T09:12:18.557Z,100433.00
2023-03-26T09:15:30.130Z,100432.38
2023-03-26T09:18:27.566Z,100435.72
2023-03-26T09:21:25.751Z,100435.41
2023-03-26T09:24:23.152Z,100439.56
2023-03-26T09:27:05.104Z,100443.50
2023-03-26T09:30:14.863Z,100444.88
2023-03-26T09:33:12.727Z,100443.66
2023-03-26T09:35:57.409Z,100451.47
2023-03-26T09:38:48.156Z,100449.53
2023-03-26T09:41:20.929Z,100451.84
2023-03-26T09:44:42.698Z,100454.31
2023-03-26T09:47:37.016Z,100458.56
2023-03-26T09:50:26.963Z,100462.16
2023-03-26T09:53:09.472Z,100457.69
2023-03-26T09:55:55.247Z,100466.34
2023-03-26T10:01:19.687Z,100470.88
2023-03-26T10:04:01.241Z,100470.81
2023-03-26T10:06:52.118Z,100473.41
2023-03-26T10:09:48.684Z,100473.41
2023-03-26T10:12:27.866Z,100476.03
2023-03-26T10:15:09.272Z,100471.66
2023-03-26T10:17:49.543Z,100477.09
2023-03-26T10:20:32.452Z,100478.16
2023-03-26T10:23:16.101Z,100482.81
2023-03-26T10:26:04.632Z,100478.91
2023-03-26T10:28:57.008Z,100482.53
2023-03-26T10:31:45.636Z,100483.56
2023-03-26T10:34:34.640Z,100479.13
2023-03-26T10:37:13.063Z,100484.28
2023-03-26T10:40:24.608Z,100479.91
2023-03-26T10:43:27.513Z,100480.03
2023-03-26T10:46:20.738Z,100489.69
2023-03-26T10:49:06.889Z,100480.88
2023-03-26T10:51:45.201Z,100485.50
2023-03-26T10:54:21.927Z,100487.16
2023-03-26T10:56:54.076Z,100487.97
2023-03-26T10:59:29.454Z,100482.72
2023-03-26T11:02:08.876Z,100481.94
2023-03-26T11:04:52.448Z,100483.59
2023-03-26T11:07:29.845Z,100494.03
2023-03-26T11:10:08.761Z,100493.88
2023-03-26T11:12:46.758Z,100498.91
2023-03-26T11:15:30.125Z,100496.19
2023-03-26T11:18:14.283Z,100503.97
2023-03-26T11:20:51.183Z,100499.41
2023-03-26T11:23:38.681Z,100509.16
2023-03-26T11:26:13.500Z,100496.22
2023-03-26T11:29:31.224Z,100510.25
2023-03-26T11:32:04.731Z,100516.34
2023-03-26T11:34:40.081Z,100512.00
2023-03-26T11:37:16.265Z,100516.34
2023-03-26T11:39:55.887Z,100523.16
2023-03-26T11:42:27.806Z,100520.56
2023-03-26T11:45:00.354Z,100519.09
2023-03-26T11:47:41.937Z,100519.22
2023-03-26T11:50:20.176Z,100527.34
2023-03-26T11:52:50.214Z,100517.91
2023-03-26T11:55:20.156Z,100513.50
2023-03-26T11:57:56.510Z,100522.25
2023-03-26T12:00:28.384Z,100513.31
2023-03-26T12:03:03.301Z,100514.06
2023-03-26T12:05:36.885Z,100519.28
2023-03-26T12:08:21.641Z,100521.84
2023-03-26T12:11:01.878Z,100535.78
2023-03-26T12:13:38.000Z,100536.78
2023-03-26T12:16:19.390Z,100542.66
2023-03-26T12:19:03.762Z,100537.97
2023-03-26T12:21:33.608Z,100528.50
2023-03-26T12:24:05.521Z,100536.78
2023-03-26T12:26:45.146Z,100546.50
2023-03-26T12:29:16.846Z,100538.69
2023-03-26T12:31:55.955Z,100544.94
2023-03-26T12:34:34.975Z,100551.25
2023-03-26T12:37:06.236Z,100544.13
2023-03-26T12:40:07.521Z,100551.97
2023-03-26T12:44:45.243Z,100549.28
2023-03-26T12:45:25.957Z,100562.47
2023-03-26T12:48:02.482Z,100560.47
2023-03-26T12:50:57.714Z,100561.84
2023-03-26T12:53:50.482Z,100563.25
2023-03-26T12:56:24.575Z,100569.28
2023-03-26T12:59:08.993Z,100577.09
2023-03-26T13:01:53.363Z,100571.91
2023-03-26T13:05:04.961Z,100582.53
2023-03-26T13:07:53.737Z,100588.09
2023-03-26T13:10:44.203Z,100580.72
2023-03-26T13:13:33.539Z,100572.75
2023-03-26T13:16:10.764Z,100574.00
2023-03-26T13:18:55.770Z,100566.63
2023-03-26T13:21:36.135Z,100582.06
2023-03-26T13:24:15.598Z,100585.38
2023-03-26T13:27:03.306Z,100580.72
2023-03-26T13:29:43.695Z,100591.69
2023-03-26T13:32:21.829Z,100583.59
2023-03-26T13:35:07.540Z,100595.06
2023-03-26T13:37:45.851Z,100601.97
2023-03-26T13:40:28.454Z,100595.66
2023-03-26T13:43:21.236Z,100595.31
2023-03-26T13:46:00.396Z,100598.69
2023-03-26T13:48:34.059Z,100605.78
2023-03-26T13:51:12.406Z,100599.78
2023-03-26T13:53:48.590Z,100602.44
2023-03-26T13:56:23.825Z,100597.31
2023-03-26T13:59:00.702Z,100609.59
2023-03-26T14:01:41.261Z,100610.59
2023-03-26T14:04:20.301Z,100602.63
2023-03-26T14:06:57.672Z,100607.63
2023-03-26T14:09:33.847Z,100600.78
2023-03-26T14:12:35.100Z,100609.59
2023-03-26T14:15:07.795Z,100610.66
2023-03-26T14:17:45.174Z,100610.00
2023-03-26T14:20:56.556Z,100611.97
2023-03-26T14:23:52.007Z,100619.53
2023-03-26T14:26:43.687Z,100621.44
2023-03-26T14:29:33.097Z,100622.34
2023-03-26T14:32:24.558Z,100622.22
2023-03-26T14:35:23.909Z,100634.63
2023-03-26T14:38:23.838Z,100638.16
2023-03-26T14:41:00.522Z,100638.00
2023-03-26T14:44:15.329Z,100647.53
2023-03-26T14:47:15.789Z,100646.38
2023-03-26T14:50:22.834Z,100648.81
2023-03-26T14:53:01.257Z,100647.69
2023-03-26T14:56:04.547Z,100664.78
2023-03-26T14:59:12.547Z,100656.47
2023-03-26T15:02:14.623Z,100663.63
2023-03-26T15:05:00.956Z,100670.19
2023-03-26T15:07:53.687Z,100665.78
2023-03-26T15:10:53.881Z,100673.91
2023-03-26T15:13:50.904Z,100675.16
2023-03-26T15:16:57.125Z,100670.66
2023-03-26T15:20:09.501Z,100687.94
2023-03-26T15:23:17.923Z,100685.13
2023-03-26T15:26:17.706Z,100684.19
2023-03-26T15:29:06.462Z,100697.19
2023-03-26T15:32:17.551Z,100698.50
2023-03-26T15:35:22.195Z,100702.75
2023-03-26T15:38:38.768Z,100694.22
2023-03-26T15:41:19.656Z,100709.25
2023-03-26T15:44:33.028Z,100710.19
2023-03-26T15:47:36.555Z,100716.19
2023-03-26T15:50:18.719Z,100723.25
2023-03-26T15:52:54.828Z,100719.94
2023-03-26T15:55:36.889Z,100729.56
2023-03-26T15:58:14.007Z,100728.72
2023-03-26T16:00:58.152Z,100731.53
2023-03-26T16:03:36.164Z,100740.34
2023-03-26T16:06:31.383Z,100752.47
2023-03-26T16:09:17.224Z,100746.78
2023-03-26T16:11:58.755Z,100744.63
2023-03-26T16:14:45.964Z,100744.50
2023-03-26T16:17:21.129Z,100750.47
2023-03-26T16:19:54.924Z,100761.84
2023-03-26T16:22:46.009Z,100762.00
2023-03-26T16:25:29.066Z,100760.28
2023-03-26T16:28:36.614Z,100770.88
2023-03-26T16:31:39.230Z,100776.84
2023-03-26T16:34:27.997Z,100774.03
2023-03-26T16:37:01.563Z,100777.25
2023-03-26T16:39:52.873Z,100776.28
2023-03-26T16:42:35.888Z,100787.59
2023-03-26T16:45:29.237Z,100786.75
2023-03-26T16:48:13.414Z,100785.78
2023-03-26T16:50:49.755Z,100795.09
2023-03-26T16:53:30.244Z,100801.75
2023-03-26T16:56:02.864Z,100801.47
2023-03-26T16:58:40.141Z,100815.34
2023-03-26T17:01:16.169Z,100806.47
2023-03-26T17:03:58.434Z,100814.22
2023-03-26T17:07:02.005Z,100820.34
2023-03-26T17:09:43.013Z,100832.41
2023-03-26T17:12:21.788Z,100837.47
2023-03-26T17:15:11.268Z,100837.13
2023-03-26T17:18:07.555Z,100852.81
2023-03-26T17:20:46.848Z,100864.00
2023-03-26T17:23:39.939Z,100857.47
2023-03-26T17:26:19.668Z,100862.66
2023-03-26T17:29:02.774Z,100872.22
2023-03-26T17:31:43.185Z,100870.41
2023-03-26T17:34:51.725Z,100880.56
2023-03-26T17:37:41.221Z,100880.31
2023-03-26T17:40:49.777Z,100889.06
2023-03-26T17:43:38.934Z,100893.16
2023-03-26T17:46:30.656Z,100888.44
2023-03-26T17:49:04.840Z,100893.59
2023-03-26T17:51:43.134Z,100896.13
2023-03-26T17:54:25.618Z,100903.97
2023-03-26T17:56:58.165Z,100915.78
2023-03-26T17:59:32.063Z,100918.19
2023-03-26T18:02:04.278Z,100924.22
2023-03-26T18:04:37.855Z,100923.25
2023-03-26T18:07:23.303Z,100916.22
2023-03-26T18:10:29.000Z,100939.00
2023-03-26T18:13:15.906Z,100936.28
2023-03-26T18:16:07.391Z,100941.94
2023-03-26T18:18:44.802Z,100948.91
2023-03-26T18:21:20.807Z,100949.69
2023-03-26T18:23:53.980Z,100954.03
2023-03-26T18:26:41.303Z,100961.94
2023-03-26T18:29:21.568Z,100967.97
2023-03-26T18:31:55.336Z,100963.56
2023-03-26T18:34:26.775Z,100970.78
2023-03-26T18:37:26.225Z,100966.69
2023-03-26T18:40:11.412Z,100975.00
2023-03-26T18:42:47.078Z,100972.16
2023-03-26T18:45:28.064Z,100974.75
2023-03-26T18:48:00.727Z,100975.56
2023-03-26T18:50:35.010Z,100985.84
2023-03-26T18:53:05.486Z,100986.69
2023-03-26T18:55:39.865Z,100990.81
2023-03-26T18:58:27.196Z,100993.25
2023-03-26T19:01:01.158Z,100998.44
2023-03-26T19:03:35.785Z,101005.34
2023-03-26T19:06:08.615Z,101005.00
2023-03-26T19:08:41.051Z,100998.81
2023-03-26T19:11:12.740Z,101009.78
2023-03-26T19:13:46.612Z,101019.31
2023-03-26T19:16:23.695Z,101020.94
2023-03-26T19:18:54.277Z,101013.91
2023-03-26T19:21:24.819Z,101022.94
2023-03-26T19:23:55.766Z,101019.50
2023-03-26T19:26:25.777Z,101029.25
2023-03-26T19:29:01.013Z,101024.19
2023-03-26T19:31:36.669Z,101018.97
2023-03-26T19:34:21.822Z,101022.41
2023-03-26T19:36:58.504Z,101027.50
2023-03-26T19:39:37.817Z,101028.50
2023-03-26T19:42:09.725Z,101029.34
2023-03-26T19:44:43.511Z,101031.28
2023-03-26T19:47:22.072Z,101035.59
2023-03-26T19:49:57.367Z,101044.28
2023-03-26T19:52:29.826Z,101040.56
2023-03-26T19:55:04.706Z,101052.44
2023-03-26T19:57:36.565Z,101057.50
2023-03-26T20:00:13.928Z,101050.47
2023-03-26T20:02:46.222Z,101065.44
2023-03-26T20:05:23.131Z,101065.31
2023-03-26T20:07:53.400Z,101073.88
2023-03-26T20:10:23.480Z,101070.13
2023-03-26T20:12:53.541Z,101083.06
2023-03-26T20:15:28.953Z,101076.84
2023-03-26T20:17:59.133Z,101088.00
2023-03-26T20:20:30.908Z,101084.50
2023-03-26T20:23:01.755Z,101085.34
2023-03-26T20:25:35.709Z,101093.16
2023-03-26T20:28:06.360Z,101093.00
2023-03-26T20:30:39.337Z,101095.84
2023-03-26T20:33:12.648Z,101093.16
2023-03-26T20:35:44.004Z,101102.72
2023-03-26T20:38:14.177Z,101100.91
2023-03-26T20:40:44.970Z,101119.09
2023-03-26T20:43:16.720Z,101111.34
2023-03-26T20:45:50.237Z,101111.44
2023-03-26T20:48:21.115Z,101118.44
2023-03-26T20:50:51.710Z,101111.50
2023-03-26T20:53:21.631Z,101133.31
2023-03-26T20:55:51.908Z,101122.88
2023-03-26T20:58:31.171Z,101124.66
2023-03-26T21:01:06.677Z,101137.97
2023-03-26T21:03:36.540Z,101138.88
2023-03-26T21:06:10.618Z,101138.75
2023-03-26T21:08:42.041Z,101136.25
2023-03-26T21:11:26.333Z,101142.38
2023-03-26T21:14:04.125Z,101130.03
2023-03-26T21:16:38.193Z,101136.00
2023-03-26T21:19:09.186Z,101139.50
2023-03-26T21:21:57.835Z,101135.38
2023-03-26T21:24:41.324Z,101146.78
2023-03-26T21:27:19.814Z,101147.84
2023-03-26T21:29:50.442Z,101146.88
2023-03-26T21:32:25.460Z,101152.97
2023-03-26T21:34:59.002Z,101150.13
2023-03-26T21:37:30.562Z,101156.88
2023-03-26T21:40:11.206Z,101158.59
2023-03-26T21:42:41.923Z,101158.41
2023-03-26T21:45:14.080Z,101163.63
2023-03-26T21:47:48.932Z,101176.13
2023-03-26T21:50:23.160Z,101179.72
2023-03-26T21:52:54.214Z,101180.00
2023-03-26T21:55:26.501Z,101187.84
2023-03-26T21:58:13.567Z,101185.03
2023-03-26T22:00:55.244Z,101188.28
2023-03-26T22:03:31.431Z,101195.13
2023-03-26T22:06:07.152Z,101201.16
2023-03-26T22:08:41.725Z,101199.34
2023-03-26T22:11:13.684Z,101211.59
2023-03-26T22:13:43.880Z,101208.28
2023-03-26T22:16:13.842Z,101211.78
2023-03-26T22:18:46.666Z,101214.38
2023-03-26T22:21:16.538Z,101222.38
2023-03-26T22:23:52.883Z,101212.94
2023-03-26T22:26:24.156Z,101218.94
2023-03-26T22:28:54.455Z,101229.41
2023-03-26T22:31:25.233Z,101229.41
2023-03-26T22:33:58.626Z,101235.53
2023-03-26T22:36:28.919Z,101233.81
2023-03-26T22:38:58.960Z,101233.72
2023-03-26T22:41:29.852Z,101236.97
2023-03-26T22:44:12.896Z,101248.31
2023-03-26T22:46:49.664Z,101244.72
2023-03-26T22:49:22.270Z,101244.53
2023-03-26T22:51:53.150Z,101246.25
2023-03-26T22:54:22.932Z,101254.97
2023-03-26T22:56:52.857Z,101259.38
2023-03-26T22:59:22.663Z,101265.41
2023-03-26T23:01:52.736Z,101264.50
2023-03-26T23:04:32.238Z,101274.41
2023-03-26T23:07:02.735Z,101279.25
2023-03-26T23:09:32.784Z,101279.38
2023-03-26T23:12:02.678Z,101281.81
2023-03-26T23:14:32.907Z,101289.34
2023-03-26T23:17:02.933Z,101295.00
2023-03-26T23:19:37.285Z,101300.94
2023-03-26T23:22:07.106Z,101302.56
2023-03-26T23:24:38.021Z,101306.78
2023-03-26T23:27:08.066Z,101305.00
2023-03-26T23:29:38.165Z,101309.31
2023-03-26T23:32:24.746Z,101312.53
2023-03-26T23:34:58.400Z,101308.91
2023-03-26T23:37:29.714Z,101309.75
2023-03-26T23:40:00.664Z,101308.84
2023-03-26T23:42:30.529Z,101318.09
2023-03-26T23:45:00.487Z,101315.50
2023-03-26T23:47:34.600Z,101330.13
2023-03-26T23:50:08.428Z,101335.34
2023-03-26T23:52:38.729Z,101335.34
2023-03-26T23:55:09.602Z,101341.47
2023-03-26T23:57:39.787Z,101338.97
